Time,TemperatureF,DewpointF,PressureIn,WindDirection,WindDirectionDegrees,WindSpeedMPH,WindSpeedGustMPH,Humidity,HourlyPrecipIn,Conditions,Clouds,dailyrainin,SolarRadiationWatts/m^2,SoftwareType,DateUTC
2013-07-27 00:01:00,63.7,61.7,30.04,South,181,0.0,0.0,93,0.00,,,0.00,0.0,meteohub,2013-07-27 04:01:00,
2013-07-27 00:02:00,63.7,61.7,30.04,South,181,0.0,0.0,93,0.00,,,0.00,0.0,meteohub,2013-07-27 04:02:00,
2013-07-27 00:08:00,63.5,61.5,30.04,South,181,0.0,1.0,93,0.00,,,0.00,0.0,meteohub,2013-07-27 04:08:00,
2013-07-27 00:13:00,63.3,61.3,30.05,South,181,0.0,1.0,93,0.00,,,0.00,0.0,meteohub,2013-07-27 04:13:00,
2013-07-27 00:18:00,63.3,61.3,30.04,South,181,0.0,1.0,93,0.00,,,0.00,0.0,meteohub,2013-07-27 04:18:00,
2013-07-27 00:23:00,63.1,61.2,30.04,South,181,0.0,0.0,93,0.00,,,0.00,0.0,meteohub,2013-07-27 04:23:00,
2013-07-27 00:28:00,63.1,61.2,30.04,South,181,0.0,0.0,93,0.00,,,0.00,0.0,meteohub,2013-07-27 04:28:00,
2013-07-27 00:33:00,63.1,61.2,30.04,South,181,0.0,0.0,93,0.00,,,0.00,0.0,meteohub,2013-07-27 04:33:00,
2013-07-27 00:38:00,63.1,61.2,30.04,South,181,0.0,0.0,93,0.00,,,0.00,0.0,meteohub,2013-07-27 04:38:00,
2013-07-27 00:43:00,63.0,61.0,30.04,South,181,0.0,0.0,93,0.00,,,0.00,0.0,meteohub,2013-07-27 04:43:00,
2013-07-27 00:48:00,63.0,61.0,30.04,South,181,0.0,0.0,93,0.00,,,0.00,0.0,meteohub,2013-07-27 04:48:00,
2013-07-27 00:54:00,63.0,61.0,30.04,South,181,0.0,0.0,93,0.00,,,0.00,0.0,meteohub,2013-07-27 04:54:00,
2013-07-27 00:59:00,62.8,61.0,30.04,South,181,0.0,0.0,94,0.00,,,0.00,0.0,meteohub,2013-07-27 04:59:00,
2013-07-27 01:04:00,62.8,61.0,30.04,South,181,0.0,1.0,94,0.00,,,0.00,0.0,meteohub,2013-07-27 05:04:00,
2013-07-27 01:09:00,62.8,61.0,30.04,South,181,0.0,1.0,94,0.00,,,0.00,0.0,meteohub,2013-07-27 05:09:00,
2013-07-27 01:10:00,62.8,61.0,30.04,South,181,0.0,1.0,94,0.00,,,0.00,0.0,meteohub,2013-07-27 05:10:00,
2013-07-27 01:15:00,62.8,61.0,30.04,South,181,0.0,1.0,94,0.00,,,0.00,0.0,meteohub,2013-07-27 05:15:00,
2013-07-27 01:20:00,62.6,60.8,30.04,South,181,0.0,0.0,94,0.00,,,0.00,0.0,meteohub,2013-07-27 05:20:00,
2013-07-27 01:25:00,62.6,60.8,30.04,South,181,0.0,0.0,94,0.00,,,0.00,0.0,meteohub,2013-07-27 05:25:00,
2013-07-27 01:30:00,62.4,60.6,30.04,South,181,0.0,0.0,94,0.00,,,0.00,0.0,meteohub,2013-07-27 05:30:00,
2013-07-27 01:35:00,62.4,60.6,30.04,South,181,0.0,0.0,94,0.00,,,0.00,0.0,meteohub,2013-07-27 05:35:00,
2013-07-27 01:40:00,62.4,60.6,30.04,South,181,0.0,0.0,94,0.00,,,0.00,0.0,meteohub,2013-07-27 05:40:00,
2013-07-27 01:45:00,62.2,60.4,30.04,South,181,0.0,0.0,94,0.00,,,0.00,0.0,meteohub,2013-07-27 05:45:00,
2013-07-27 01:50:00,62.2,60.4,30.04,South,181,0.0,0.0,94,0.00,,,0.00,0.0,meteohub,2013-07-27 05:50:00,
2013-07-27 01:55:00,62.4,60.6,30.03,South,181,0.0,0.0,94,0.00,,,0.00,0.0,meteohub,2013-07-27 05:55:00,
2013-07-27 02:01:00,62.2,60.4,30.03,South,181,1.0,2.0,94,0.00,,,0.00,0.0,meteohub,2013-07-27 06:01:00,
2013-07-27 02:06:00,62.2,60.4,30.03,South,181,0.0,2.0,94,0.00,,,0.00,0.0,meteohub,2013-07-27 06:06:00,
2013-07-27 02:11:00,62.2,60.4,30.03,South,181,0.0,2.0,94,0.00,,,0.00,0.0,meteohub,2013-07-27 06:11:00,
2013-07-27 02:16:00,62.2,60.4,30.03,South,181,0.0,1.0,94,0.00,,,0.00,0.0,meteohub,2013-07-27 06:16:00,
2013-07-27 02:21:00,62.2,60.4,30.03,South,181,0.0,0.0,94,0.00,,,0.00,0.0,meteohub,2013-07-27 06:21:00,
2013-07-27 02:26:00,62.2,60.4,30.03,South,181,2.0,2.0,94,0.00,,,0.00,0.0,meteohub,2013-07-27 06:26:00,
2013-07-27 02:31:00,62.1,60.3,30.03,South,181,2.0,3.0,94,0.00,,,0.00,0.0,meteohub,2013-07-27 06:31:00,
2013-07-27 02:36:00,62.1,60.3,30.03,South,181,0.0,3.0,94,0.00,,,0.00,0.0,meteohub,2013-07-27 06:36:00,
2013-07-27 02:41:00,62.1,60.3,30.03,South,181,0.0,3.0,94,0.00,,,0.00,0.0,meteohub,2013-07-27 06:41:00,
2013-07-27 02:47:00,62.1,60.3,30.03,South,181,0.0,3.0,94,0.00,,,0.00,0.0,meteohub,2013-07-27 06:47:00,
2013-07-27 02:52:00,62.2,60.8,30.03,South,181,0.0,1.0,95,0.00,,,0.00,0.0,meteohub,2013-07-27 06:52:00,
2013-07-27 02:57:00,62.4,61.0,30.03,South,181,0.0,2.0,95,0.00,,,0.00,0.0,meteohub,2013-07-27 06:57:00,
2013-07-27 03:02:00,62.6,61.2,30.03,South,181,0.0,2.0,95,0.00,,,0.00,0.0,meteohub,2013-07-27 07:02:00,
2013-07-27 03:07:00,62.8,61.3,30.03,South,181,0.0,2.0,95,0.00,,,0.00,0.0,meteohub,2013-07-27 07:07:00,
2013-07-27 03:12:00,63.0,61.5,30.03,South,181,0.0,0.0,95,0.00,,,0.00,0.0,meteohub,2013-07-27 07:12:00,
2013-07-27 03:17:00,63.1,61.7,30.02,South,181,0.0,0.0,95,0.00,,,0.00,0.0,meteohub,2013-07-27 07:17:00,
2013-07-27 03:22:00,63.3,61.9,30.03,South,181,0.0,1.0,95,0.00,,,0.00,0.0,meteohub,2013-07-27 07:22:00,
2013-07-27 03:27:00,64.0,63.0,30.02,South,181,0.0,3.0,96,0.00,,,0.00,0.0,meteohub,2013-07-27 07:27:00,
2013-07-27 03:32:00,64.4,63.3,30.02,West,265,0.0,3.0,96,0.00,,,0.00,0.0,meteohub,2013-07-27 07:32:00,
2013-07-27 03:37:00,64.6,63.1,30.02,WSW,246,0.0,5.0,95,0.00,,,0.00,0.0,meteohub,2013-07-27 07:37:00,
2013-07-27 03:42:00,64.6,63.1,30.02,WSW,246,0.0,5.0,95,0.00,,,0.00,0.0,meteohub,2013-07-27 07:42:00,
2013-07-27 03:47:00,64.6,63.1,30.02,WSW,246,0.0,1.0,95,0.00,,,0.00,0.0,meteohub,2013-07-27 07:47:00,
2013-07-27 03:52:00,64.8,63.3,30.02,WSW,246,0.0,0.0,95,0.00,,,0.00,0.0,meteohub,2013-07-27 07:52:00,
2013-07-27 03:57:00,64.8,63.3,30.02,WSW,246,0.0,1.0,95,0.00,,,0.00,0.0,meteohub,2013-07-27 07:57:00,
2013-07-27 04:02:00,64.8,63.3,30.02,WSW,246,0.0,1.0,95,0.00,,,0.00,0.0,meteohub,2013-07-27 08:02:00,
2013-07-27 04:07:00,64.4,63.0,30.02,WSW,246,0.0,1.0,95,0.00,,,0.00,0.0,meteohub,2013-07-27 08:07:00,
2013-07-27 04:12:00,64.0,62.6,30.02,WSW,246,0.0,0.0,95,0.00,,,0.00,0.0,meteohub,2013-07-27 08:12:00,
2013-07-27 04:17:00,63.7,62.2,30.02,WSW,246,0.0,1.0,95,0.00,,,0.00,0.0,meteohub,2013-07-27 08:17:00,
2013-07-27 04:23:00,63.1,61.3,30.02,WSW,246,0.0,1.0,94,0.00,,,0.00,0.0,meteohub,2013-07-27 08:23:00,
2013-07-27 04:28:00,63.0,61.5,30.03,WSW,246,0.0,1.0,95,0.00,,,0.00,0.0,meteohub,2013-07-27 08:28:00,
2013-07-27 04:33:00,62.6,61.2,30.03,WSW,246,0.0,0.0,95,0.00,,,0.00,0.0,meteohub,2013-07-27 08:33:00,
2013-07-27 04:38:00,62.4,61.0,30.03,WSW,246,0.0,0.0,95,0.00,,,0.00,0.0,meteohub,2013-07-27 08:38:00,
2013-07-27 04:43:00,62.4,61.0,30.03,WSW,246,0.0,0.0,95,0.00,,,0.00,0.0,meteohub,2013-07-27 08:43:00,
2013-07-27 04:48:00,62.2,60.8,30.03,WSW,246,0.0,0.0,95,0.00,,,0.00,0.0,meteohub,2013-07-27 08:48:00,
2013-07-27 04:53:00,62.1,60.6,30.02,WSW,246,0.0,0.0,95,0.00,,,0.00,0.0,meteohub,2013-07-27 08:53:00,
2013-07-27 04:59:00,62.1,60.3,30.02,WSW,246,0.0,0.0,94,0.00,,,0.00,0.0,meteohub,2013-07-27 08:59:00,
2013-07-27 05:04:00,61.9,60.4,30.02,WSW,246,0.0,0.0,95,0.00,,,0.00,0.0,meteohub,2013-07-27 09:04:00,
2013-07-27 05:09:00,61.7,60.3,30.02,WSW,246,0.0,0.0,95,0.00,,,0.00,0.0,meteohub,2013-07-27 09:09:00,
2013-07-27 05:14:00,61.5,60.1,30.03,WSW,246,0.0,0.0,95,0.00,,,0.00,0.0,meteohub,2013-07-27 09:14:00,
2013-07-27 05:19:00,61.5,60.1,30.02,WSW,246,0.0,0.0,95,0.00,,,0.00,0.0,meteohub,2013-07-27 09:19:00,
2013-07-27 05:24:00,61.3,59.9,30.03,WSW,246,0.0,0.0,95,0.00,,,0.00,0.0,meteohub,2013-07-27 09:24:00,
2013-07-27 05:29:00,61.3,59.9,30.03,WSW,246,0.0,0.0,95,0.00,,,0.00,0.0,meteohub,2013-07-27 09:29:00,
2013-07-27 05:34:00,61.3,59.9,30.03,WSW,246,0.0,0.0,95,0.00,,,0.00,0.0,meteohub,2013-07-27 09:34:00,
2013-07-27 05:40:00,61.2,59.7,30.03,WSW,246,0.0,2.0,95,0.00,,,0.00,0.0,meteohub,2013-07-27 09:40:00,
2013-07-27 05:45:00,61.2,59.7,30.03,WSW,246,0.0,2.0,95,0.00,,,0.00,0.0,meteohub,2013-07-27 09:45:00,
2013-07-27 05:50:00,61.2,59.7,30.04,WSW,246,0.0,0.0,95,0.00,,,0.00,5.0,meteohub,2013-07-27 09:50:00,
2013-07-27 05:55:00,61.2,59.7,30.03,WSW,246,0.0,0.0,95,0.00,,,0.00,9.0,meteohub,2013-07-27 09:55:00,
2013-07-27 06:00:00,61.2,59.7,30.03,WSW,246,0.0,0.0,95,0.00,,,0.00,11.0,meteohub,2013-07-27 10:00:00,
2013-07-27 06:05:00,61.2,59.7,30.04,WSW,246,0.0,0.0,95,0.00,,,0.00,14.0,meteohub,2013-07-27 10:05:00,
2013-07-27 06:10:00,61.3,59.9,30.04,WSW,246,0.0,0.0,95,0.00,,,0.00,18.0,meteohub,2013-07-27 10:10:00,
2013-07-27 06:15:00,61.3,59.9,30.04,WSW,246,0.0,0.0,95,0.00,,,0.00,21.0,meteohub,2013-07-27 10:15:00,
2013-07-27 06:21:00,61.5,60.1,30.04,WSW,246,0.0,0.0,95,0.00,,,0.00,26.0,meteohub,2013-07-27 10:21:00,
2013-07-27 06:26:00,61.5,60.1,30.04,WSW,246,0.0,0.0,95,0.00,,,0.00,32.0,meteohub,2013-07-27 10:26:00,
2013-07-27 06:31:00,61.5,60.1,30.04,WSW,246,0.0,0.0,95,0.00,,,0.00,42.0,meteohub,2013-07-27 10:31:00,
2013-07-27 06:36:00,61.7,60.3,30.04,WSW,246,0.0,0.0,95,0.00,,,0.00,53.0,meteohub,2013-07-27 10:36:00,
2013-07-27 06:41:00,61.9,60.4,30.04,WSW,246,0.0,0.0,95,0.00,,,0.00,47.0,meteohub,2013-07-27 10:41:00,
2013-07-27 06:46:00,62.1,60.6,30.04,WSW,246,0.0,0.0,95,0.00,,,0.00,51.0,meteohub,2013-07-27 10:46:00,
2013-07-27 06:51:00,62.2,60.8,30.04,WSW,246,0.0,0.0,95,0.00,,,0.00,67.0,meteohub,2013-07-27 10:51:00,
2013-07-27 06:57:00,62.4,61.3,30.04,WSW,246,0.0,0.0,96,0.00,,,0.00,84.0,meteohub,2013-07-27 10:57:00,
2013-07-27 07:02:00,62.4,61.3,30.04,WSW,246,0.0,0.0,96,0.00,,,0.00,114.0,meteohub,2013-07-27 11:02:00,
2013-07-27 07:07:00,62.8,61.7,30.04,WSW,246,0.0,0.0,96,0.00,,,0.00,86.0,meteohub,2013-07-27 11:07:00,
2013-07-27 07:12:00,63.1,62.1,30.04,WSW,246,0.0,0.0,96,0.00,,,0.00,104.0,meteohub,2013-07-27 11:12:00,
2013-07-27 07:17:00,63.7,62.6,30.04,WSW,246,0.0,0.0,96,0.00,,,0.00,174.0,meteohub,2013-07-27 11:17:00,
2013-07-27 07:22:00,64.0,63.0,30.04,WSW,246,0.0,0.0,96,0.00,,,0.00,190.0,meteohub,2013-07-27 11:22:00,
2013-07-27 07:27:00,64.6,63.5,30.04,WSW,246,0.0,0.0,96,0.00,,,0.00,146.0,meteohub,2013-07-27 11:27:00,
2013-07-27 07:32:00,64.9,63.9,30.04,WSW,246,0.0,0.0,96,0.00,,,0.00,179.0,meteohub,2013-07-27 11:32:00,
2013-07-27 07:37:00,65.7,64.8,30.04,WSW,246,0.0,0.0,97,0.00,,,0.00,149.0,meteohub,2013-07-27 11:37:00,
2013-07-27 07:42:00,66.0,64.8,30.04,WSW,246,0.0,0.0,96,0.00,,,0.00,281.0,meteohub,2013-07-27 11:42:00,
2013-07-27 07:47:00,66.6,65.7,30.04,WSW,246,2.0,0.0,97,0.00,,,0.00,243.0,meteohub,2013-07-27 11:47:00,
2013-07-27 07:52:00,67.5,66.6,30.04,WSW,246,0.0,2.0,97,0.00,,,0.00,278.0,meteohub,2013-07-27 11:52:00,
2013-07-27 07:57:00,68.2,67.3,30.04,WSW,246,0.0,2.0,97,0.00,,,0.00,290.0,meteohub,2013-07-27 11:57:00,
2013-07-27 08:03:00,68.7,67.8,30.04,WSW,246,0.0,2.0,97,0.00,,,0.00,316.0,meteohub,2013-07-27 12:03:00,
2013-07-27 08:08:00,69.1,68.2,30.04,SE,141,1.0,1.0,97,0.00,,,0.00,341.0,meteohub,2013-07-27 12:08:00,
2013-07-27 08:13:00,69.3,68.0,30.04,South,170,0.0,5.0,96,0.00,,,0.00,348.0,meteohub,2013-07-27 12:13:00,
2013-07-27 08:18:00,69.6,68.4,30.04,South,170,2.0,5.0,96,0.00,,,0.00,388.0,meteohub,2013-07-27 12:18:00,
2013-07-27 08:23:00,70.2,68.9,30.04,SSE,167,0.0,5.0,96,0.00,,,0.00,401.0,meteohub,2013-07-27 12:23:00,
2013-07-27 08:28:00,70.5,69.3,30.04,WNW,284,1.0,4.0,96,0.00,,,0.00,341.0,meteohub,2013-07-27 12:28:00,
2013-07-27 08:33:00,70.9,69.4,30.04,South,178,4.0,4.0,95,0.00,,,0.00,417.0,meteohub,2013-07-27 12:33:00,
2013-07-27 08:38:00,71.1,69.3,30.04,SSW,205,0.0,6.0,94,0.00,,,0.00,401.0,meteohub,2013-07-27 12:38:00,
2013-07-27 08:43:00,71.4,69.3,30.04,South,190,6.0,6.0,93,0.00,,,0.00,452.0,meteohub,2013-07-27 12:43:00,
2013-07-27 08:48:00,71.8,69.3,30.05,SSW,209,1.0,7.0,92,0.00,,,0.00,464.0,meteohub,2013-07-27 12:48:00,
2013-07-27 08:53:00,72.1,69.1,30.05,SW,217,2.0,7.0,90,0.00,,,0.00,468.0,meteohub,2013-07-27 12:53:00,
2013-07-27 08:58:00,72.9,69.4,30.04,South,170,5.0,7.0,89,0.00,,,0.00,496.0,meteohub,2013-07-27 12:58:00,
2013-07-27 09:03:00,73.2,69.1,30.05,SW,223,2.0,7.0,87,0.00,,,0.00,513.0,meteohub,2013-07-27 13:03:00,
2013-07-27 09:09:00,73.8,69.3,30.05,SW,217,4.0,6.0,86,0.00,,,0.00,522.0,meteohub,2013-07-27 13:09:00,
2013-07-27 09:14:00,74.1,69.3,30.05,SSE,161,1.0,6.0,85,0.00,,,0.00,534.0,meteohub,2013-07-27 13:14:00,
2013-07-27 09:19:00,74.7,69.1,30.04,WNW,292,2.0,7.0,83,0.00,,,0.00,555.0,meteohub,2013-07-27 13:19:00,
2013-07-27 09:24:00,74.8,68.9,30.04,SW,221,2.0,7.0,82,0.00,,,0.00,570.0,meteohub,2013-07-27 13:24:00,
2013-07-27 09:29:00,75.4,69.1,30.04,SW,223,4.0,8.0,81,0.00,,,0.00,585.0,meteohub,2013-07-27 13:29:00,
2013-07-27 09:34:00,75.6,68.9,30.04,South,170,0.0,8.0,80,0.00,,,0.00,596.0,meteohub,2013-07-27 13:34:00,
2013-07-27 09:39:00,75.2,68.9,30.05,South,179,1.0,8.0,81,0.00,,,0.00,612.0,meteohub,2013-07-27 13:39:00,
2013-07-27 09:45:00,75.2,69.3,30.05,South,183,2.0,9.0,82,0.00,,,0.00,622.0,meteohub,2013-07-27 13:45:00,
2013-07-27 09:50:00,75.6,69.6,30.05,SW,220,4.0,9.0,82,0.00,,,0.00,638.0,meteohub,2013-07-27 13:50:00,
2013-07-27 09:55:00,75.6,69.6,30.05,SSW,195,3.0,9.0,82,0.00,,,0.00,647.0,meteohub,2013-07-27 13:55:00,
2013-07-27 10:00:00,75.7,69.4,30.05,SSW,194,6.0,8.0,81,0.00,,,0.00,659.0,meteohub,2013-07-27 14:00:00,
2013-07-27 10:05:00,75.6,69.3,30.05,SSE,159,2.0,8.0,81,0.00,,,0.00,673.0,meteohub,2013-07-27 14:05:00,
2013-07-27 10:10:00,75.4,69.1,30.05,South,191,5.0,9.0,81,0.00,,,0.00,687.0,meteohub,2013-07-27 14:10:00,
2013-07-27 10:15:00,75.4,69.1,30.05,SW,221,5.0,9.0,81,0.00,,,0.00,698.0,meteohub,2013-07-27 14:15:00,
2013-07-27 10:20:00,75.4,68.7,30.05,South,191,4.0,9.0,80,0.00,,,0.00,708.0,meteohub,2013-07-27 14:20:00,
2013-07-27 10:25:00,75.4,69.1,30.06,South,180,5.0,9.0,81,0.00,,,0.00,717.0,meteohub,2013-07-27 14:25:00,
2013-07-27 10:30:00,75.6,69.3,30.06,South,175,6.0,10.0,81,0.00,,,0.00,729.0,meteohub,2013-07-27 14:30:00,
2013-07-27 10:35:00,75.9,69.3,30.05,South,180,0.0,10.0,80,0.00,,,0.00,740.0,meteohub,2013-07-27 14:35:00,
2013-07-27 10:40:00,76.1,69.4,30.05,SE,139,1.0,10.0,80,0.00,,,0.00,751.0,meteohub,2013-07-27 14:40:00,
2013-07-27 10:46:00,77.2,70.5,30.05,SSW,205,4.0,9.0,80,0.00,,,0.00,761.0,meteohub,2013-07-27 14:46:00,
2013-07-27 10:51:00,77.7,70.3,30.05,WSW,238,3.0,9.0,78,0.00,,,0.00,770.0,meteohub,2013-07-27 14:51:00,
2013-07-27 10:56:00,77.9,70.2,30.05,SW,216,2.0,8.0,77,0.00,,,0.00,780.0,meteohub,2013-07-27 14:56:00,
2013-07-27 11:01:00,77.9,70.2,30.05,SW,227,5.0,8.0,77,0.00,,,0.00,788.0,meteohub,2013-07-27 15:01:00,
2013-07-27 11:06:00,77.2,69.8,30.06,South,173,5.0,10.0,78,0.00,,,0.00,802.0,meteohub,2013-07-27 15:06:00,
2013-07-27 11:11:00,77.4,70.0,30.06,SSE,148,5.0,10.0,78,0.00,,,0.00,784.0,meteohub,2013-07-27 15:11:00,
2013-07-27 11:17:00,77.2,69.4,30.06,South,178,2.0,10.0,77,0.00,,,0.00,807.0,meteohub,2013-07-27 15:17:00,
2013-07-27 11:22:00,77.5,69.8,30.06,SSE,157,4.0,9.0,77,0.00,,,0.00,816.0,meteohub,2013-07-27 15:22:00,
2013-07-27 11:27:00,77.4,69.6,30.06,SSW,213,6.0,10.0,77,0.00,,,0.00,830.0,meteohub,2013-07-27 15:27:00,
2013-07-27 11:32:00,77.4,69.6,30.06,South,175,5.0,10.0,77,0.00,,,0.00,844.0,meteohub,2013-07-27 15:32:00,
2013-07-27 11:37:00,77.7,69.6,30.05,South,180,6.0,10.0,76,0.00,,,0.00,828.0,meteohub,2013-07-27 15:37:00,
2013-07-27 11:42:00,77.5,68.9,30.05,South,173,5.0,9.0,75,0.00,,,0.00,837.0,meteohub,2013-07-27 15:42:00,
2013-07-27 11:47:00,78.3,69.3,30.05,SSW,198,9.0,9.0,74,0.00,,,0.00,847.0,meteohub,2013-07-27 15:47:00,
2013-07-27 11:52:00,78.6,68.9,30.05,SSW,194,6.0,9.0,72,0.00,,,0.00,861.0,meteohub,2013-07-27 15:52:00,
2013-07-27 11:57:00,79.0,68.7,30.05,South,190,8.0,10.0,71,0.00,,,0.00,868.0,meteohub,2013-07-27 15:57:00,
2013-07-27 12:02:00,78.3,67.3,30.06,SW,233,6.0,10.0,69,0.00,,,0.00,875.0,meteohub,2013-07-27 16:02:00,
2013-07-27 12:08:00,78.8,68.2,30.06,South,189,1.0,10.0,70,0.00,,,0.00,881.0,meteohub,2013-07-27 16:08:00,
2013-07-27 12:13:00,79.2,68.2,30.05,SSW,208,2.0,10.0,69,0.00,,,0.00,896.0,meteohub,2013-07-27 16:13:00,
2013-07-27 12:18:00,79.7,67.3,30.06,SSW,196,3.0,11.0,66,0.00,,,0.00,867.0,meteohub,2013-07-27 16:18:00,
2013-07-27 12:23:00,79.7,67.8,30.06,SSW,207,7.0,11.0,67,0.00,,,0.00,904.0,meteohub,2013-07-27 16:23:00,
2013-07-27 12:28:00,80.4,66.7,30.05,West,260,2.0,11.0,63,0.00,,,0.00,907.0,meteohub,2013-07-27 16:28:00,
2013-07-27 12:33:00,80.4,66.2,30.05,South,179,2.0,10.0,62,0.00,,,0.00,851.0,meteohub,2013-07-27 16:33:00,
2013-07-27 12:38:00,80.1,65.8,30.05,SSW,212,2.0,10.0,62,0.00,,,0.00,436.0,meteohub,2013-07-27 16:38:00,
2013-07-27 12:44:00,80.1,64.9,30.05,SW,215,3.0,10.0,60,0.00,,,0.00,851.0,meteohub,2013-07-27 16:44:00,
2013-07-27 12:49:00,80.6,65.5,30.04,South,186,5.0,10.0,60,0.00,,,0.00,846.0,meteohub,2013-07-27 16:49:00,
2013-07-27 12:54:00,80.8,65.1,30.04,SSW,203,5.0,10.0,59,0.00,,,0.00,858.0,meteohub,2013-07-27 16:54:00,
2013-07-27 12:59:00,80.8,64.6,30.04,SSW,200,5.0,10.0,58,0.00,,,0.00,926.0,meteohub,2013-07-27 16:59:00,
2013-07-27 13:04:00,81.3,64.6,30.04,SSW,211,3.0,10.0,57,0.00,,,0.00,942.0,meteohub,2013-07-27 17:04:00,
2013-07-27 13:09:00,81.0,63.9,30.04,SSW,198,7.0,10.0,56,0.00,,,0.00,984.0,meteohub,2013-07-27 17:09:00,
2013-07-27 13:14:00,81.1,63.0,30.04,SW,228,4.0,10.0,54,0.00,,,0.00,904.0,meteohub,2013-07-27 17:14:00,
2013-07-27 13:19:00,81.9,64.0,30.04,SW,219,8.0,10.0,55,0.00,,,0.00,933.0,meteohub,2013-07-27 17:19:00,
2013-07-27 13:24:00,82.2,64.9,30.04,SSE,158,1.0,10.0,56,0.00,,,0.00,865.0,meteohub,2013-07-27 17:24:00,
2013-07-27 13:29:00,81.9,64.6,30.03,SSE,162,2.0,10.0,56,0.00,,,0.00,338.0,meteohub,2013-07-27 17:29:00,
2013-07-27 13:34:00,80.4,64.2,30.04,South,171,6.0,10.0,58,0.00,,,0.00,431.0,meteohub,2013-07-27 17:34:00,
2013-07-27 13:40:00,81.0,65.3,30.03,SSW,194,0.0,9.0,59,0.00,,,0.00,856.0,meteohub,2013-07-27 17:40:00,
2013-07-27 13:45:00,80.8,64.0,30.03,South,190,2.0,9.0,57,0.00,,,0.00,963.0,meteohub,2013-07-27 17:45:00,
2013-07-27 13:50:00,81.0,64.8,30.03,SSW,198,4.0,9.0,58,0.00,,,0.00,896.0,meteohub,2013-07-27 17:50:00,
2013-07-27 13:55:00,81.3,65.1,30.03,SSW,213,0.0,8.0,58,0.00,,,0.00,888.0,meteohub,2013-07-27 17:55:00,
2013-07-27 14:00:00,82.0,64.8,30.02,South,169,5.0,11.0,56,0.00,,,0.00,846.0,meteohub,2013-07-27 18:00:00,
2013-07-27 14:05:00,81.3,64.0,30.03,South,181,3.0,12.0,56,0.00,,,0.00,932.0,meteohub,2013-07-27 18:05:00,
2013-07-27 14:10:00,82.2,65.5,30.03,South,174,0.0,12.0,57,0.00,,,0.00,935.0,meteohub,2013-07-27 18:10:00,
2013-07-27 14:15:00,82.4,66.2,30.02,SW,234,6.0,12.0,58,0.00,,,0.00,860.0,meteohub,2013-07-27 18:15:00,
2013-07-27 14:20:00,81.9,66.6,30.02,SSE,163,9.0,9.0,60,0.00,,,0.00,891.0,meteohub,2013-07-27 18:20:00,
2013-07-27 14:25:00,81.9,65.7,30.03,SSW,211,4.0,9.0,58,0.00,,,0.00,926.0,meteohub,2013-07-27 18:25:00,
2013-07-27 14:31:00,81.7,66.9,30.02,SW,220,2.0,11.0,61,0.00,,,0.00,805.0,meteohub,2013-07-27 18:31:00,
2013-07-27 14:36:00,82.8,68.0,30.03,SE,134,11.0,11.0,61,0.00,,,0.00,575.0,meteohub,2013-07-27 18:36:00,
2013-07-27 14:41:00,81.7,67.5,30.03,SSE,147,4.0,13.0,62,0.00,,,0.00,563.0,meteohub,2013-07-27 18:41:00,
2013-07-27 14:46:00,81.3,67.5,30.03,SE,130,6.0,13.0,63,0.00,,,0.00,548.0,meteohub,2013-07-27 18:46:00,
2013-07-27 14:51:00,81.1,67.8,30.03,SE,142,4.0,13.0,64,0.00,,,0.00,643.0,meteohub,2013-07-27 18:51:00,
2013-07-27 14:57:00,80.4,67.6,30.03,SE,125,7.0,9.0,65,0.00,,,0.00,613.0,meteohub,2013-07-27 18:57:00,
2013-07-27 15:02:00,80.8,68.0,30.02,SE,135,7.0,9.0,65,0.00,,,0.00,455.0,meteohub,2013-07-27 19:02:00,
2013-07-27 15:07:00,81.0,68.0,30.02,SSE,159,1.0,9.0,65,0.00,,,0.00,515.0,meteohub,2013-07-27 19:07:00,
2013-07-27 15:12:00,80.2,68.4,30.02,SSW,199,4.0,9.0,67,0.00,,,0.00,759.0,meteohub,2013-07-27 19:12:00,
2013-07-27 15:17:00,80.6,68.5,30.02,South,174,0.0,9.0,67,0.00,,,0.00,800.0,meteohub,2013-07-27 19:17:00,
2013-07-27 15:22:00,81.0,67.6,30.02,SE,134,5.0,9.0,64,0.00,,,0.00,795.0,meteohub,2013-07-27 19:22:00,
2013-07-27 15:27:00,80.4,67.6,30.02,South,190,6.0,12.0,65,0.00,,,0.00,362.0,meteohub,2013-07-27 19:27:00,
2013-07-27 15:32:00,80.1,67.3,30.02,SSW,195,7.0,12.0,65,0.00,,,0.00,684.0,meteohub,2013-07-27 19:32:00,
2013-07-27 15:37:00,80.2,67.8,30.02,SE,128,0.0,12.0,66,0.00,,,0.00,564.0,meteohub,2013-07-27 19:37:00,
2013-07-27 15:42:00,80.4,67.6,30.01,South,191,6.0,8.0,65,0.00,,,0.00,642.0,meteohub,2013-07-27 19:42:00,
2013-07-27 15:47:00,80.2,66.9,30.01,South,178,4.0,9.0,64,0.00,,,0.00,327.0,meteohub,2013-07-27 19:47:00,
2013-07-27 15:53:00,80.1,68.2,30.01,South,180,5.0,10.0,67,0.00,,,0.00,520.0,meteohub,2013-07-27 19:53:00,
2013-07-27 15:58:00,79.5,67.1,30.01,South,175,5.0,11.0,66,0.00,,,0.00,485.0,meteohub,2013-07-27 19:58:00,
2013-07-27 16:03:00,79.3,67.5,30.01,South,180,3.0,11.0,67,0.00,,,0.00,582.0,meteohub,2013-07-27 20:03:00,
2013-07-27 16:08:00,79.3,67.8,30.01,SSE,167,8.0,11.0,68,0.00,,,0.00,580.0,meteohub,2013-07-27 20:08:00,
2013-07-27 16:13:00,79.5,68.0,30.01,SSE,165,4.0,10.0,68,0.00,,,0.00,485.0,meteohub,2013-07-27 20:13:00,
2013-07-27 16:18:00,79.2,68.2,30.01,SSE,148,1.0,12.0,69,0.00,,,0.00,366.0,meteohub,2013-07-27 20:18:00,
2013-07-27 16:23:00,79.5,69.3,30.01,SSE,167,5.0,12.0,71,0.00,,,0.00,343.0,meteohub,2013-07-27 20:23:00,
2013-07-27 16:28:00,78.6,68.9,30.01,South,175,5.0,11.0,72,0.00,,,0.00,234.0,meteohub,2013-07-27 20:28:00,
2013-07-27 16:33:00,78.4,69.1,30.01,South,171,2.0,11.0,73,0.00,,,0.00,352.0,meteohub,2013-07-27 20:33:00,
2013-07-27 16:38:00,78.6,69.3,30.01,SSE,153,5.0,10.0,73,0.00,,,0.00,547.0,meteohub,2013-07-27 20:38:00,
2013-07-27 16:43:00,79.0,68.7,30.01,SSE,159,1.0,10.0,71,0.00,,,0.00,443.0,meteohub,2013-07-27 20:43:00,
2013-07-27 16:48:00,79.0,68.7,30.01,SSW,213,4.0,10.0,71,0.00,,,0.00,508.0,meteohub,2013-07-27 20:48:00,
2013-07-27 16:53:00,79.0,69.3,30.01,South,185,6.0,10.0,72,0.00,,,0.00,469.0,meteohub,2013-07-27 20:53:00,
2013-07-27 16:58:00,79.5,68.9,30.00,South,169,1.0,10.0,70,0.00,,,0.00,497.0,meteohub,2013-07-27 20:58:00,
2013-07-27 17:04:00,80.1,68.5,30.00,SSE,147,2.0,10.0,68,0.00,,,0.00,571.0,meteohub,2013-07-27 21:04:00,
2013-07-27 17:09:00,80.2,68.7,30.00,SSE,162,2.0,10.0,68,0.00,,,0.00,554.0,meteohub,2013-07-27 21:09:00,
2013-07-27 17:14:00,80.1,68.2,30.00,SSE,157,2.0,10.0,67,0.00,,,0.00,524.0,meteohub,2013-07-27 21:14:00,
2013-07-27 17:19:00,79.9,68.0,30.00,SE,146,5.0,14.0,67,0.00,,,0.00,496.0,meteohub,2013-07-27 21:19:00,
2013-07-27 17:24:00,79.9,67.5,30.00,South,175,5.0,14.0,66,0.00,,,0.00,434.0,meteohub,2013-07-27 21:24:00,
2013-07-27 17:29:00,79.0,67.1,30.00,SSE,150,6.0,14.0,67,0.00,,,0.00,445.0,meteohub,2013-07-27 21:29:00,
2013-07-27 17:34:00,79.2,67.6,30.00,SSE,159,4.0,13.0,68,0.00,,,0.00,425.0,meteohub,2013-07-27 21:34:00,
2013-07-27 17:39:00,78.6,67.6,29.99,SE,135,4.0,13.0,69,0.00,,,0.00,401.0,meteohub,2013-07-27 21:39:00,
2013-07-27 17:45:00,79.0,68.7,29.99,ESE,123,6.0,13.0,71,0.00,,,0.00,373.0,meteohub,2013-07-27 21:45:00,
2013-07-27 17:49:00,78.3,68.5,29.99,South,177,2.0,13.0,72,0.00,,,0.00,323.0,meteohub,2013-07-27 21:49:00,
2013-07-27 17:55:00,78.1,68.7,29.99,SE,130,4.0,13.0,73,0.00,,,0.00,357.0,meteohub,2013-07-27 21:55:00,
2013-07-27 18:00:00,78.1,69.1,29.99,SSE,157,2.0,11.0,74,0.00,,,0.00,346.0,meteohub,2013-07-27 22:00:00,
2013-07-27 18:05:00,78.4,69.4,29.99,SSE,161,4.0,11.0,74,0.00,,,0.00,221.0,meteohub,2013-07-27 22:05:00,
2013-07-27 18:10:00,78.6,69.3,29.99,South,172,6.0,10.0,73,0.00,,,0.00,135.0,meteohub,2013-07-27 22:10:00,
2013-07-27 18:15:00,78.1,68.7,29.99,SSE,147,5.0,9.0,73,0.00,,,0.00,111.0,meteohub,2013-07-27 22:15:00,
2013-07-27 18:20:00,77.2,68.7,29.99,SSE,153,5.0,7.0,75,0.00,,,0.00,100.0,meteohub,2013-07-27 22:20:00,
2013-07-27 18:25:00,76.5,68.7,29.99,SSE,165,5.0,7.0,77,0.00,,,0.00,142.0,meteohub,2013-07-27 22:25:00,
2013-07-27 18:30:00,76.1,68.4,29.99,South,180,3.0,7.0,77,0.00,,,0.00,223.0,meteohub,2013-07-27 22:30:00,
2013-07-27 18:35:00,75.7,68.0,29.99,SSE,147,2.0,7.0,77,0.00,,,0.00,185.0,meteohub,2013-07-27 22:35:00,
2013-07-27 18:40:00,75.9,68.2,29.99,South,187,1.0,8.0,77,0.00,,,0.00,91.0,meteohub,2013-07-27 22:40:00,
2013-07-27 18:45:00,75.9,67.8,29.99,SSE,148,1.0,8.0,76,0.00,,,0.00,69.0,meteohub,2013-07-27 22:45:00,
2013-07-27 18:51:00,75.4,66.9,29.99,SSE,154,4.0,7.0,75,0.00,,,0.00,54.0,meteohub,2013-07-27 22:51:00,
2013-07-27 18:56:00,75.0,66.9,29.99,SE,140,2.0,10.0,76,0.00,,,0.00,47.0,meteohub,2013-07-27 22:56:00,
2013-07-27 19:01:00,74.8,66.4,29.99,South,181,0.0,10.0,75,0.00,,,0.00,49.0,meteohub,2013-07-27 23:01:00,
2013-07-27 19:06:00,74.7,66.6,29.99,South,181,5.0,6.0,76,0.00,,,0.00,56.0,meteohub,2013-07-27 23:06:00,
2013-07-27 19:11:00,74.7,66.9,29.99,SE,146,2.0,10.0,77,0.00,,,0.00,69.0,meteohub,2013-07-27 23:11:00,
2013-07-27 19:16:00,74.5,67.1,29.99,South,173,1.0,10.0,78,0.00,,,0.00,95.0,meteohub,2013-07-27 23:16:00,
2013-07-27 19:21:00,74.5,67.5,29.99,SSE,165,5.0,7.0,79,0.00,,,0.00,88.0,meteohub,2013-07-27 23:21:00,
2013-07-27 19:26:00,74.3,67.3,29.99,SSE,161,0.0,7.0,79,0.00,,,0.00,67.0,meteohub,2013-07-27 23:26:00,
2013-07-27 19:31:00,74.1,67.1,29.99,SE,146,2.0,7.0,79,0.00,,,0.00,58.0,meteohub,2013-07-27 23:31:00,
2013-07-27 19:37:00,74.1,66.7,29.99,SSE,159,4.0,8.0,78,0.00,,,0.00,54.0,meteohub,2013-07-27 23:37:00,
2013-07-27 19:42:00,73.9,66.6,29.99,SE,144,1.0,10.0,78,0.00,,,0.00,46.0,meteohub,2013-07-27 23:42:00,
2013-07-27 19:47:00,73.9,67.1,29.99,SSE,158,7.0,10.0,79,0.00,,,0.00,46.0,meteohub,2013-07-27 23:47:00,
2013-07-27 19:52:00,73.8,67.6,30.00,SSE,157,4.0,11.0,81,0.00,,,0.00,39.0,meteohub,2013-07-27 23:52:00,
2013-07-27 19:57:00,73.6,67.8,30.00,SSE,150,5.0,11.0,82,0.00,,,0.00,28.0,meteohub,2013-07-27 23:57:00,
2013-07-27 20:02:00,73.4,68.0,30.00,South,188,6.0,11.0,83,0.00,,,0.00,16.0,meteohub,2013-07-28 00:02:00,
2013-07-27 20:07:00,73.0,68.2,29.99,SSE,163,2.0,11.0,85,0.00,,,0.00,12.0,meteohub,2013-07-28 00:07:00,
2013-07-27 20:12:00,72.9,68.0,29.99,SSE,165,0.0,11.0,85,0.00,,,0.00,0.0,meteohub,2013-07-28 00:12:00,
2013-07-27 20:17:00,72.7,68.2,29.99,South,190,0.0,9.0,86,0.00,,,0.00,0.0,meteohub,2013-07-28 00:17:00,
2013-07-27 20:22:00,72.7,68.5,29.99,South,190,0.0,7.0,87,0.00,,,0.00,0.0,meteohub,2013-07-28 00:22:00,
2013-07-27 20:27:00,72.3,68.2,29.99,South,190,2.0,4.0,87,0.00,,,0.00,0.0,meteohub,2013-07-28 00:27:00,
2013-07-27 20:32:00,72.1,68.4,29.99,SSE,163,1.0,3.0,88,0.00,,,0.00,0.0,meteohub,2013-07-28 00:32:00,
2013-07-27 20:38:00,72.1,68.7,29.99,SE,142,2.0,5.0,89,0.00,,,0.00,0.0,meteohub,2013-07-28 00:38:00,
2013-07-27 20:43:00,72.0,68.5,29.99,SSE,159,0.0,5.0,89,0.00,,,0.00,0.0,meteohub,2013-07-28 00:43:00,
2013-07-27 20:48:00,71.8,68.4,29.99,SSE,159,0.0,5.0,89,0.00,,,0.00,0.0,meteohub,2013-07-28 00:48:00,
2013-07-27 20:53:00,71.4,68.4,30.00,SSE,159,0.0,5.0,90,0.00,,,0.00,0.0,meteohub,2013-07-28 00:53:00,
2013-07-27 20:58:00,71.4,68.7,30.00,SSE,159,0.0,5.0,91,0.00,,,0.00,0.0,meteohub,2013-07-28 00:58:00,
2013-07-27 21:03:00,71.2,68.5,30.01,SSE,159,0.0,2.0,91,0.00,,,0.00,0.0,meteohub,2013-07-28 01:03:00,
2013-07-27 21:08:00,70.9,68.2,30.01,SSE,159,0.0,2.0,91,0.00,,,0.00,0.0,meteohub,2013-07-28 01:08:00,
2013-07-27 21:13:00,70.9,68.2,30.01,SSE,159,0.0,2.0,91,0.00,,,0.00,0.0,meteohub,2013-07-28 01:13:00,
2013-07-27 21:18:00,70.9,68.4,30.01,SSE,159,0.0,2.0,92,0.00,,,0.00,0.0,meteohub,2013-07-28 01:18:00,
2013-07-27 21:24:00,70.9,68.4,30.01,SSE,159,0.0,0.0,92,0.00,,,0.00,0.0,meteohub,2013-07-28 01:24:00,
2013-07-27 21:29:00,70.7,68.2,30.01,SSE,159,0.0,0.0,92,0.00,,,0.00,0.0,meteohub,2013-07-28 01:29:00,
2013-07-27 21:34:00,70.5,68.0,30.01,SSE,159,0.0,0.0,92,0.00,,,0.00,0.0,meteohub,2013-07-28 01:34:00,
2013-07-27 21:39:00,70.3,67.8,30.01,SSE,159,0.0,0.0,92,0.00,,,0.00,0.0,meteohub,2013-07-28 01:39:00,
2013-07-27 21:44:00,70.2,67.6,30.01,SSE,159,0.0,2.0,92,0.00,,,0.00,0.0,meteohub,2013-07-28 01:44:00,
2013-07-27 21:46:00,70.2,67.6,30.01,SSE,159,0.0,2.0,92,0.00,,,0.00,0.0,meteohub,2013-07-28 01:46:00,
2013-07-27 21:51:00,70.0,67.5,30.01,SSE,159,0.0,2.0,92,0.00,,,0.00,0.0,meteohub,2013-07-28 01:51:00,
2013-07-27 21:56:00,69.8,67.3,30.00,SSE,159,0.0,0.0,92,0.00,,,0.00,0.0,meteohub,2013-07-28 01:56:00,
2013-07-27 22:01:00,69.6,67.5,30.00,SSE,159,0.0,0.0,93,0.00,,,0.00,0.0,meteohub,2013-07-28 02:01:00,
2013-07-27 22:06:00,69.8,67.6,30.00,SSE,159,0.0,0.0,93,0.00,,,0.00,0.0,meteohub,2013-07-28 02:06:00,
2013-07-27 22:12:00,69.6,67.5,30.00,SSE,159,0.0,0.0,93,0.00,,,0.00,0.0,meteohub,2013-07-28 02:12:00,
2013-07-27 22:17:00,69.6,67.5,30.00,SSE,159,0.0,0.0,93,0.00,,,0.00,0.0,meteohub,2013-07-28 02:17:00,
2013-07-27 22:22:00,69.6,67.5,30.00,SSE,159,0.0,0.0,93,0.00,,,0.00,0.0,meteohub,2013-07-28 02:22:00,
2013-07-27 22:27:00,69.6,67.5,29.99,SSE,159,0.0,0.0,93,0.00,,,0.00,0.0,meteohub,2013-07-28 02:27:00,
2013-07-27 22:32:00,69.4,67.3,29.99,SSE,159,0.0,0.0,93,0.00,,,0.00,0.0,meteohub,2013-07-28 02:32:00,
2013-07-27 22:37:00,69.3,67.1,30.00,SSE,159,0.0,0.0,93,0.00,,,0.00,0.0,meteohub,2013-07-28 02:37:00,
2013-07-27 22:42:00,69.3,67.5,29.99,SSE,159,0.0,0.0,94,0.00,,,0.00,0.0,meteohub,2013-07-28 02:42:00,
2013-07-27 22:47:00,69.1,66.9,29.99,SSE,159,0.0,0.0,93,0.00,,,0.00,0.0,meteohub,2013-07-28 02:47:00,
2013-07-27 22:52:00,68.7,66.6,29.99,SSE,159,1.0,0.0,93,0.00,,,0.00,0.0,meteohub,2013-07-28 02:52:00,
2013-07-27 22:57:00,68.2,66.4,29.99,SSE,159,0.0,2.0,94,0.00,,,0.00,0.0,meteohub,2013-07-28 02:57:00,
2013-07-27 23:03:00,68.0,66.2,29.98,SSE,159,2.0,4.0,94,0.00,,,0.00,0.0,meteohub,2013-07-28 03:03:00,
2013-07-27 23:08:00,67.8,66.0,29.99,SSE,159,0.0,4.0,94,0.00,,,0.00,0.0,meteohub,2013-07-28 03:08:00,
2013-07-27 23:12:00,67.6,65.8,29.98,SSE,159,0.0,4.0,94,0.00,,,0.00,0.0,meteohub,2013-07-28 03:12:00,
2013-07-27 23:18:00,67.5,65.7,29.98,SSE,159,0.0,4.0,94,0.00,,,0.00,0.0,meteohub,2013-07-28 03:18:00,
2013-07-27 23:23:00,67.5,65.7,29.98,SSE,159,0.0,2.0,94,0.00,,,0.00,0.0,meteohub,2013-07-28 03:23:00,
2013-07-27 23:28:00,67.3,65.5,29.98,SSE,159,0.0,2.0,94,0.00,,,0.00,0.0,meteohub,2013-07-28 03:28:00,
2013-07-27 23:33:00,67.5,65.7,29.98,East,101,0.0,2.0,94,0.00,,,0.00,0.0,meteohub,2013-07-28 03:33:00,
2013-07-27 23:38:00,67.5,66.0,29.98,East,100,0.0,4.0,95,0.00,,,0.00,0.0,meteohub,2013-07-28 03:38:00,
2013-07-27 23:43:00,67.5,66.0,29.98,East,100,0.0,4.0,95,0.00,,,0.00,0.0,meteohub,2013-07-28 03:43:00,
2013-07-27 23:48:00,67.6,66.2,29.98,East,100,0.0,4.0,95,0.00,,,0.00,0.0,meteohub,2013-07-28 03:48:00,
2013-07-27 23:53:00,67.5,66.0,29.98,East,100,0.0,4.0,95,0.00,,,0.00,0.0,meteohub,2013-07-28 03:53:00,
2013-07-27 23:58:00,67.5,66.0,29.98,East,100,0.0,0.0,95,0.00,,,0.00,0.0,meteohub,2013-07-28 03:58:00,